sensor_id;sensor_type;location;lat;lon;timestamp;P1;durP1;ratioP1;P2;durP2;ratioP2
28427;SDS011;15662;49.128;8.520;2023-02-22T00:01:00;12.57;;;6.13;;
28427;SDS011;15662;49.128;8.520;2023-02-22T00:03:33;8.50;;;6.03;;
28427;SDS011;15662;49.128;8.520;2023-02-22T00:06:02;8.07;;;5.65;;
28427;SDS011;15662;49.128;8.520;2023-02-22T00:08:35;8.30;;;5.97;;
28427;SDS011;15662;49.128;8.520;2023-02-22T00:11:05;9.05;;;5.93;;
28427;SDS011;15662;49.128;8.520;2023-02-22T00:13:35;11.57;;;6.38;;
28427;SDS011;15662;49.128;8.520;2023-02-22T00:16:05;8.68;;;6.05;;
28427;SDS011;15662;49.128;8.520;2023-02-22T00:18:33;14.05;;;6.85;;
28427;SDS011;15662;49.128;8.520;2023-02-22T00:21:01;12.50;;;6.82;;
28427;SDS011;15662;49.128;8.520;2023-02-22T00:23:29;14.05;;;8.93;;
28427;SDS011;15662;49.128;8.520;2023-02-22T00:25:58;14.77;;;7.30;;
28427;SDS011;15662;49.128;8.520;2023-02-22T00:28:27;11.65;;;6.70;;
28427;SDS011;15662;49.128;8.520;2023-02-22T00:30:56;10.32;;;6.15;;
28427;SDS011;15662;49.128;8.520;2023-02-22T00:33:26;7.72;;;5.18;;
28427;SDS011;15662;49.128;8.520;2023-02-22T00:35:53;7.78;;;4.78;;
28427;SDS011;15662;49.128;8.520;2023-02-22T00:38:22;7.63;;;4.95;;
28427;SDS011;15662;49.128;8.520;2023-02-22T00:40:51;9.60;;;5.40;;
28427;SDS011;15662;49.128;8.520;2023-02-22T00:43:19;6.93;;;5.13;;
28427;SDS011;15662;49.128;8.520;2023-02-22T00:45:47;5.78;;;4.90;;
28427;SDS011;15662;49.128;8.520;2023-02-22T00:48:17;7.00;;;4.53;;
28427;SDS011;15662;49.128;8.520;2023-02-22T00:50:44;5.32;;;4.78;;
28427;SDS011;15662;49.128;8.520;2023-02-22T00:53:15;5.97;;;4.68;;
28427;SDS011;15662;49.128;8.520;2023-02-22T00:55:43;7.20;;;4.50;;
28427;SDS011;15662;49.128;8.520;2023-02-22T00:58:11;7.60;;;5.28;;
28427;SDS011;15662;49.128;8.520;2023-02-22T01:00:39;6.47;;;5.07;;
28427;SDS011;15662;49.128;8.520;2023-02-22T01:03:09;8.13;;;5.63;;
28427;SDS011;15662;49.128;8.520;2023-02-22T01:05:40;10.88;;;5.57;;
28427;SDS011;15662;49.128;8.520;2023-02-22T01:08:10;8.45;;;5.40;;
28427;SDS011;15662;49.128;8.520;2023-02-22T01:10:39;6.45;;;5.15;;
28427;SDS011;15662;49.128;8.520;2023-02-22T01:13:08;7.78;;;5.38;;
28427;SDS011;15662;49.128;8.520;2023-02-22T01:15:40;9.65;;;5.47;;
28427;SDS011;15662;49.128;8.520;2023-02-22T01:18:11;7.95;;;5.40;;
28427;SDS011;15662;49.128;8.520;2023-02-22T01:20:39;7.60;;;5.25;;
28427;SDS011;15662;49.128;8.520;2023-02-22T01:23:07;8.65;;;5.78;;
28427;SDS011;15662;49.128;8.520;2023-02-22T01:25:36;7.18;;;5.45;;
28427;SDS011;15662;49.128;8.520;2023-02-22T01:28:05;10.43;;;6.07;;
28427;SDS011;15662;49.128;8.520;2023-02-22T01:30:34;6.60;;;5.07;;
28427;SDS011;15662;49.128;8.520;2023-02-22T01:33:05;7.85;;;5.30;;
28427;SDS011;15662;49.128;8.520;2023-02-22T01:35:35;8.88;;;5.13;;
28427;SDS011;15662;49.128;8.520;2023-02-22T01:38:07;8.27;;;5.38;;
28427;SDS011;15662;49.128;8.520;2023-02-22T01:40:40;6.25;;;5.07;;
28427;SDS011;15662;49.128;8.520;2023-02-22T01:43:22;7.63;;;5.45;;
28427;SDS011;15662;49.128;8.520;2023-02-22T01:48:43;8.57;;;5.43;;
28427;SDS011;15662;49.128;8.520;2023-02-22T01:51:21;8.00;;;5.10;;
28427;SDS011;15662;49.128;8.520;2023-02-22T01:54:06;11.43;;;5.30;;
28427;SDS011;15662;49.128;8.520;2023-02-22T01:56:44;6.25;;;5.18;;
28427;SDS011;15662;49.128;8.520;2023-02-22T01:59:42;8.55;;;4.97;;
28427;SDS011;15662;49.128;8.520;2023-02-22T02:02:14;6.85;;;4.97;;
28427;SDS011;15662;49.128;8.520;2023-02-22T02:04:44;9.05;;;5.07;;
28427;SDS011;15662;49.128;8.520;2023-02-22T02:07:12;7.35;;;5.22;;
28427;SDS011;15662;49.128;8.520;2023-02-22T02:09:51;6.70;;;5.30;;
28427;SDS011;15662;49.128;8.520;2023-02-22T02:12:26;9.47;;;6.13;;
28427;SDS011;15662;49.128;8.520;2023-02-22T02:18:02;8.15;;;5.65;;
28427;SDS011;15662;49.128;8.520;2023-02-22T02:27:01;8.45;;;6.07;;
28427;SDS011;15662;49.128;8.520;2023-02-22T02:32:42;9.73;;;6.30;;
28427;SDS011;15662;49.128;8.520;2023-02-22T02:41:09;7.55;;;5.30;;
28427;SDS011;15662;49.128;8.520;2023-02-22T02:43:48;8.25;;;4.70;;
28427;SDS011;15662;49.128;8.520;2023-02-22T02:46:39;5.03;;;3.95;;
28427;SDS011;15662;49.128;8.520;2023-02-22T02:49:17;6.97;;;5.22;;
28427;SDS011;15662;49.128;8.520;2023-02-22T02:51:52;6.43;;;5.15;;
28427;SDS011;15662;49.128;8.520;2023-02-22T02:54:22;7.47;;;5.32;;
28427;SDS011;15662;49.128;8.520;2023-02-22T02:57:11;8.00;;;5.65;;
28427;SDS011;15662;49.128;8.520;2023-02-22T02:59:39;8.95;;;5.95;;
28427;SDS011;15662;49.128;8.520;2023-02-22T03:08:05;9.30;;;5.63;;
28427;SDS011;15662;49.128;8.520;2023-02-22T03:11:05;8.55;;;5.70;;
28427;SDS011;15662;49.128;8.520;2023-02-22T03:14:02;8.07;;;5.30;;
28427;SDS011;15662;49.128;8.520;2023-02-22T03:20:17;6.72;;;5.25;;
28427;SDS011;15662;49.128;8.520;2023-02-22T03:23:03;7.97;;;5.03;;
28427;SDS011;15662;49.128;8.520;2023-02-22T03:25:39;9.48;;;6.15;;
28427;SDS011;15662;49.128;8.520;2023-02-22T03:28:19;7.50;;;6.13;;
28427;SDS011;15662;49.128;8.520;2023-02-22T03:31:05;7.38;;;5.97;;
28427;SDS011;15662;49.128;8.520;2023-02-22T03:33:44;9.07;;;6.15;;
28427;SDS011;15662;49.128;8.520;2023-02-22T03:36:42;8.75;;;5.43;;
28427;SDS011;15662;49.128;8.520;2023-02-22T03:39:17;8.25;;;5.45;;
28427;SDS011;15662;49.128;8.520;2023-02-22T03:41:47;6.97;;;5.50;;
28427;SDS011;15662;49.128;8.520;2023-02-22T03:44:21;8.60;;;5.18;;
28427;SDS011;15662;49.128;8.520;2023-02-22T03:46:53;7.85;;;5.15;;
28427;SDS011;15662;49.128;8.520;2023-02-22T03:49:49;8.05;;;5.90;;
28427;SDS011;15662;49.128;8.520;2023-02-22T03:52:20;6.78;;;5.05;;
28427;SDS011;15662;49.128;8.520;2023-02-22T03:54:50;7.70;;;5.50;;
28427;SDS011;15662;49.128;8.520;2023-02-22T03:57:26;5.85;;;4.95;;
28427;SDS011;15662;49.128;8.520;2023-02-22T04:00:04;6.50;;;5.50;;
28427;SDS011;15662;49.128;8.520;2023-02-22T04:02:40;6.85;;;5.15;;
28427;SDS011;15662;49.128;8.520;2023-02-22T04:05:13;7.22;;;5.65;;
28427;SDS011;15662;49.128;8.520;2023-02-22T04:07:41;8.27;;;5.35;;
28427;SDS011;15662;49.128;8.520;2023-02-22T04:10:11;6.40;;;5.65;;
28427;SDS011;15662;49.128;8.520;2023-02-22T04:12:43;9.68;;;5.60;;
28427;SDS011;15662;49.128;8.520;2023-02-22T04:15:14;8.45;;;5.05;;
28427;SDS011;15662;49.128;8.520;2023-02-22T04:17:45;6.78;;;5.68;;
28427;SDS011;15662;49.128;8.520;2023-02-22T04:20:14;9.73;;;5.88;;
28427;SDS011;15662;49.128;8.520;2023-02-22T04:22:54;8.48;;;5.60;;
28427;SDS011;15662;49.128;8.520;2023-02-22T04:25:23;7.40;;;5.65;;
28427;SDS011;15662;49.128;8.520;2023-02-22T04:27:51;9.52;;;5.80;;
28427;SDS011;15662;49.128;8.520;2023-02-22T04:30:29;9.25;;;5.40;;
28427;SDS011;15662;49.128;8.520;2023-02-22T04:32:58;8.38;;;5.30;;
28427;SDS011;15662;49.128;8.520;2023-02-22T04:35:26;7.40;;;5.30;;
28427;SDS011;15662;49.128;8.520;2023-02-22T04:37:53;9.30;;;5.93;;
28427;SDS011;15662;49.128;8.520;2023-02-22T04:40:21;7.45;;;5.55;;
28427;SDS011;15662;49.128;8.520;2023-02-22T04:42:49;7.28;;;5.50;;
28427;SDS011;15662;49.128;8.520;2023-02-22T04:45:17;7.60;;;5.25;;
28427;SDS011;15662;49.128;8.520;2023-02-22T04:47:45;7.70;;;5.30;;
28427;SDS011;15662;49.128;8.520;2023-02-22T04:50:13;7.22;;;5.50;;
28427;SDS011;15662;49.128;8.520;2023-02-22T04:52:42;10.38;;;6.13;;
28427;SDS011;15662;49.128;8.520;2023-02-22T04:55:11;6.57;;;5.43;;
28427;SDS011;15662;49.128;8.520;2023-02-22T04:57:39;6.05;;;5.15;;
28427;SDS011;15662;49.128;8.520;2023-02-22T05:00:07;6.95;;;5.57;;
28427;SDS011;15662;49.128;8.520;2023-02-22T05:02:37;10.20;;;5.40;;
28427;SDS011;15662;49.128;8.520;2023-02-22T05:05:06;10.05;;;5.38;;
28427;SDS011;15662;49.128;8.520;2023-02-22T05:07:34;7.45;;;5.72;;
28427;SDS011;15662;49.128;8.520;2023-02-22T05:10:02;7.82;;;5.40;;
28427;SDS011;15662;49.128;8.520;2023-02-22T05:12:30;9.40;;;5.63;;
28427;SDS011;15662;49.128;8.520;2023-02-22T05:14:57;8.02;;;5.13;;
28427;SDS011;15662;49.128;8.520;2023-02-22T05:17:25;6.78;;;5.10;;
28427;SDS011;15662;49.128;8.520;2023-02-22T05:19:53;6.93;;;5.45;;
28427;SDS011;15662;49.128;8.520;2023-02-22T05:22:21;6.63;;;5.05;;
28427;SDS011;15662;49.128;8.520;2023-02-22T05:24:50;6.45;;;5.13;;
28427;SDS011;15662;49.128;8.520;2023-02-22T05:27:22;6.40;;;4.78;;
28427;SDS011;15662;49.128;8.520;2023-02-22T05:29:50;6.00;;;5.00;;
28427;SDS011;15662;49.128;8.520;2023-02-22T05:32:18;6.22;;;4.38;;
28427;SDS011;15662;49.128;8.520;2023-02-22T05:34:46;6.40;;;4.40;;
28427;SDS011;15662;49.128;8.520;2023-02-22T05:37:13;4.55;;;4.05;;
28427;SDS011;15662;49.128;8.520;2023-02-22T05:39:41;7.10;;;4.55;;
28427;SDS011;15662;49.128;8.520;2023-02-22T05:42:09;5.90;;;4.70;;
28427;SDS011;15662;49.128;8.520;2023-02-22T05:44:37;5.18;;;4.60;;
28427;SDS011;15662;49.128;8.520;2023-02-22T05:47:04;4.95;;;4.45;;
28427;SDS011;15662;49.128;8.520;2023-02-22T05:49:32;6.18;;;4.65;;
28427;SDS011;15662;49.128;8.520;2023-02-22T05:52:00;5.78;;;4.40;;
28427;SDS011;15662;49.128;8.520;2023-02-22T05:54:27;6.45;;;4.85;;
28427;SDS011;15662;49.128;8.520;2023-02-22T05:56:55;6.97;;;5.32;;
28427;SDS011;15662;49.128;8.520;2023-02-22T05:59:24;5.95;;;4.90;;
28427;SDS011;15662;49.128;8.520;2023-02-22T06:01:52;9.10;;;5.45;;
28427;SDS011;15662;49.128;8.520;2023-02-22T06:04:20;11.30;;;8.13;;
28427;SDS011;15662;49.128;8.520;2023-02-22T06:06:47;10.82;;;7.43;;
28427;SDS011;15662;49.128;8.520;2023-02-22T06:09:15;12.93;;;9.32;;
28427;SDS011;15662;49.128;8.520;2023-02-22T06:11:43;11.65;;;8.40;;
28427;SDS011;15662;49.128;8.520;2023-02-22T06:14:11;12.40;;;9.77;;
28427;SDS011;15662;49.128;8.520;2023-02-22T06:16:39;8.85;;;7.15;;
28427;SDS011;15662;49.128;8.520;2023-02-22T06:19:07;8.50;;;6.45;;
28427;SDS011;15662;49.128;8.520;2023-02-22T06:21:35;9.02;;;6.47;;
28427;SDS011;15662;49.128;8.520;2023-02-22T06:24:03;7.28;;;5.60;;
28427;SDS011;15662;49.128;8.520;2023-02-22T06:26:31;7.32;;;5.85;;
28427;SDS011;15662;49.128;8.520;2023-02-22T06:28:59;9.73;;;5.97;;
28427;SDS011;15662;49.128;8.520;2023-02-22T06:31:28;8.85;;;5.90;;
28427;SDS011;15662;49.128;8.520;2023-02-22T06:33:57;9.35;;;6.25;;
28427;SDS011;15662;49.128;8.520;2023-02-22T06:36:25;8.20;;;6.50;;
28427;SDS011;15662;49.128;8.520;2023-02-22T06:38:55;8.88;;;6.00;;
28427;SDS011;15662;49.128;8.520;2023-02-22T06:41:23;11.57;;;6.25;;
28427;SDS011;15662;49.128;8.520;2023-02-22T06:43:50;7.32;;;5.60;;
28427;SDS011;15662;49.128;8.520;2023-02-22T06:46:18;6.75;;;5.30;;
28427;SDS011;15662;49.128;8.520;2023-02-22T06:48:47;8.27;;;6.05;;
28427;SDS011;15662;49.128;8.520;2023-02-22T06:51:18;7.85;;;6.05;;
28427;SDS011;15662;49.128;8.520;2023-02-22T06:53:46;8.10;;;6.57;;
28427;SDS011;15662;49.128;8.520;2023-02-22T06:56:15;9.25;;;6.78;;
28427;SDS011;15662;49.128;8.520;2023-02-22T06:58:44;9.13;;;7.10;;
28427;SDS011;15662;49.128;8.520;2023-02-22T07:01:12;11.63;;;8.13;;
28427;SDS011;15662;49.128;8.520;2023-02-22T07:03:40;12.63;;;8.32;;
28427;SDS011;15662;49.128;8.520;2023-02-22T07:06:09;14.00;;;9.70;;
28427;SDS011;15662;49.128;8.520;2023-02-22T07:08:36;15.43;;;10.45;;
28427;SDS011;15662;49.128;8.520;2023-02-22T07:11:06;12.10;;;8.00;;
28427;SDS011;15662;49.128;8.520;2023-02-22T07:13:34;13.52;;;9.18;;
28427;SDS011;15662;49.128;8.520;2023-02-22T07:16:01;13.73;;;9.38;;
28427;SDS011;15662;49.128;8.520;2023-02-22T07:18:29;11.77;;;9.13;;
28427;SDS011;15662;49.128;8.520;2023-02-22T07:20:57;10.68;;;7.70;;
28427;SDS011;15662;49.128;8.520;2023-02-22T07:23:27;11.70;;;7.97;;
28427;SDS011;15662;49.128;8.520;2023-02-22T07:25:55;11.02;;;7.20;;
28427;SDS011;15662;49.128;8.520;2023-02-22T07:28:29;7.70;;;6.00;;
28427;SDS011;15662;49.128;8.520;2023-02-22T07:30:57;9.85;;;5.97;;
28427;SDS011;15662;49.128;8.520;2023-02-22T07:33:27;9.88;;;6.10;;
28427;SDS011;15662;49.128;8.520;2023-02-22T07:35:55;8.73;;;6.13;;
28427;SDS011;15662;49.128;8.520;2023-02-22T07:38:25;9.90;;;6.28;;
28427;SDS011;15662;49.128;8.520;2023-02-22T07:40:54;9.48;;;6.30;;
28427;SDS011;15662;49.128;8.520;2023-02-22T07:43:25;9.15;;;5.88;;
28427;SDS011;15662;49.128;8.520;2023-02-22T07:45:58;7.13;;;5.57;;
28427;SDS011;15662;49.128;8.520;2023-02-22T07:48:29;9.77;;;6.82;;
28427;SDS011;15662;49.128;8.520;2023-02-22T07:50:58;11.02;;;7.20;;
28427;SDS011;15662;49.128;8.520;2023-02-22T07:53:27;10.10;;;7.78;;
28427;SDS011;15662;49.128;8.520;2023-02-22T07:55:58;12.30;;;8.38;;
28427;SDS011;15662;49.128;8.520;2023-02-22T07:58:31;12.55;;;8.95;;
28427;SDS011;15662;49.128;8.520;2023-02-22T08:00:59;22.05;;;14.60;;
28427;SDS011;15662;49.128;8.520;2023-02-22T08:03:31;15.88;;;10.38;;
28427;SDS011;15662;49.128;8.520;2023-02-22T08:06:03;11.57;;;8.57;;
28427;SDS011;15662;49.128;8.520;2023-02-22T08:08:33;15.27;;;9.13;;
28427;SDS011;15662;49.128;8.520;2023-02-22T08:11:01;14.00;;;9.32;;
28427;SDS011;15662;49.128;8.520;2023-02-22T08:13:29;10.20;;;7.93;;
28427;SDS011;15662;49.128;8.520;2023-02-22T08:15:57;11.27;;;7.70;;
28427;SDS011;15662;49.128;8.520;2023-02-22T08:18:25;12.13;;;8.02;;
28427;SDS011;15662;49.128;8.520;2023-02-22T08:20:54;10.98;;;7.90;;
28427;SDS011;15662;49.128;8.520;2023-02-22T08:23:23;9.75;;;7.18;;
28427;SDS011;15662;49.128;8.520;2023-02-22T08:25:55;9.48;;;7.18;;
28427;SDS011;15662;49.128;8.520;2023-02-22T08:28:23;10.90;;;7.53;;
28427;SDS011;15662;49.128;8.520;2023-02-22T08:30:53;12.73;;;8.00;;
28427;SDS011;15662;49.128;8.520;2023-02-22T08:33:21;10.68;;;7.60;;
28427;SDS011;15662;49.128;8.520;2023-02-22T08:35:52;11.43;;;7.78;;
28427;SDS011;15662;49.128;8.520;2023-02-22T08:38:22;12.23;;;7.30;;
28427;SDS011;15662;49.128;8.520;2023-02-22T08:40:58;11.77;;;7.50;;
28427;SDS011;15662;49.128;8.520;2023-02-22T08:43:26;9.90;;;7.03;;
28427;SDS011;15662;49.128;8.520;2023-02-22T08:45:54;8.88;;;7.20;;
28427;SDS011;15662;49.128;8.520;2023-02-22T08:48:25;10.80;;;7.72;;
28427;SDS011;15662;49.128;8.520;2023-02-22T08:50:52;10.13;;;7.32;;
28427;SDS011;15662;49.128;8.520;2023-02-22T08:53:21;10.57;;;7.25;;
28427;SDS011;15662;49.128;8.520;2023-02-22T08:55:49;10.75;;;7.55;;
28427;SDS011;15662;49.128;8.520;2023-02-22T08:58:17;12.15;;;8.10;;
28427;SDS011;15662;49.128;8.520;2023-02-22T09:00:45;9.18;;;7.35;;
28427;SDS011;15662;49.128;8.520;2023-02-22T09:03:33;9.85;;;7.50;;
28427;SDS011;15662;49.128;8.520;2023-02-22T09:06:03;11.13;;;7.40;;
28427;SDS011;15662;49.128;8.520;2023-02-22T09:08:34;10.15;;;7.22;;
28427;SDS011;15662;49.128;8.520;2023-02-22T09:11:03;12.63;;;8.00;;
28427;SDS011;15662;49.128;8.520;2023-02-22T09:13:32;11.15;;;7.60;;
28427;SDS011;15662;49.128;8.520;2023-02-22T09:16:00;10.43;;;6.50;;
28427;SDS011;15662;49.128;8.520;2023-02-22T09:18:28;11.02;;;7.10;;
28427;SDS011;15662;49.128;8.520;2023-02-22T09:21:10;11.27;;;6.72;;
28427;SDS011;15662;49.128;8.520;2023-02-22T09:23:38;10.88;;;7.03;;
28427;SDS011;15662;49.128;8.520;2023-02-22T09:26:08;9.27;;;6.75;;
28427;SDS011;15662;49.128;8.520;2023-02-22T09:28:36;10.82;;;7.22;;
28427;SDS011;15662;49.128;8.520;2023-02-22T09:31:04;12.30;;;7.97;;
28427;SDS011;15662;49.128;8.520;2023-02-22T09:33:33;9.20;;;7.00;;
28427;SDS011;15662;49.128;8.520;2023-02-22T09:36:01;8.35;;;6.43;;
28427;SDS011;15662;49.128;8.520;2023-02-22T09:38:29;8.02;;;6.40;;
28427;SDS011;15662;49.128;8.520;2023-02-22T09:44:15;11.25;;;6.78;;
28427;SDS011;15662;49.128;8.520;2023-02-22T09:46:58;7.00;;;5.80;;
28427;SDS011;15662;49.128;8.520;2023-02-22T09:49:27;12.55;;;6.25;;
28427;SDS011;15662;49.128;8.520;2023-02-22T09:52:17;8.35;;;6.18;;
28427;SDS011;15662;49.128;8.520;2023-02-22T09:55:03;8.27;;;6.07;;
28427;SDS011;15662;49.128;8.520;2023-02-22T09:57:36;8.75;;;6.03;;
28427;SDS011;15662;49.128;8.520;2023-02-22T10:05:59;7.13;;;6.03;;
28427;SDS011;15662;49.128;8.520;2023-02-22T10:08:37;7.82;;;5.60;;
28427;SDS011;15662;49.128;8.520;2023-02-22T10:16:57;7.15;;;5.82;;
28427;SDS011;15662;49.128;8.520;2023-02-22T10:20:02;9.82;;;5.60;;
28427;SDS011;15662;49.128;8.520;2023-02-22T10:23:08;7.20;;;5.68;;
28427;SDS011;15662;49.128;8.520;2023-02-22T10:25:54;9.82;;;6.13;;
28427;SDS011;15662;49.128;8.520;2023-02-22T10:28:47;8.55;;;6.13;;
28427;SDS011;15662;49.128;8.520;2023-02-22T10:31:29;7.80;;;6.40;;
28427;SDS011;15662;49.128;8.520;2023-02-22T10:34:08;8.77;;;6.18;;
28427;SDS011;15662;49.128;8.520;2023-02-22T10:36:57;8.45;;;6.18;;
28427;SDS011;15662;49.128;8.520;2023-02-22T10:42:44;8.20;;;6.75;;
28427;SDS011;15662;49.128;8.520;2023-02-22T10:47:53;8.05;;;6.25;;
28427;SDS011;15662;49.128;8.520;2023-02-22T10:50:25;7.22;;;6.32;;
28427;SDS011;15662;49.128;8.520;2023-02-22T10:52:58;6.85;;;5.65;;
28427;SDS011;15662;49.128;8.520;2023-02-22T10:55:25;8.25;;;5.97;;
28427;SDS011;15662;49.128;8.520;2023-02-22T10:57:58;8.63;;;6.50;;
28427;SDS011;15662;49.128;8.520;2023-02-22T11:00:37;7.43;;;6.18;;
28427;SDS011;15662;49.128;8.520;2023-02-22T11:03:16;8.63;;;6.47;;
28427;SDS011;15662;49.128;8.520;2023-02-22T11:05:47;10.23;;;6.32;;
28427;SDS011;15662;49.128;8.520;2023-02-22T11:10:48;8.82;;;6.82;;
28427;SDS011;15662;49.128;8.520;2023-02-22T11:13:27;9.40;;;6.50;;
28427;SDS011;15662;49.128;8.520;2023-02-22T11:16:00;10.60;;;6.80;;
28427;SDS011;15662;49.128;8.520;2023-02-22T11:18:46;9.88;;;6.53;;
28427;SDS011;15662;49.128;8.520;2023-02-22T11:21:20;14.27;;;7.30;;
28427;SDS011;15662;49.128;8.520;2023-02-22T11:23:49;9.57;;;7.13;;
28427;SDS011;15662;49.128;8.520;2023-02-22T11:26:47;9.93;;;7.00;;
28427;SDS011;15662;49.128;8.520;2023-02-22T11:29:25;10.13;;;7.18;;
28427;SDS011;15662;49.128;8.520;2023-02-22T11:32:03;8.77;;;6.88;;
28427;SDS011;15662;49.128;8.520;2023-02-22T11:34:43;10.60;;;7.72;;
28427;SDS011;15662;49.128;8.520;2023-02-22T11:40:11;9.70;;;7.53;;
28427;SDS011;15662;49.128;8.520;2023-02-22T11:42:47;13.15;;;7.35;;
28427;SDS011;15662;49.128;8.520;2023-02-22T11:45:31;8.95;;;7.07;;
28427;SDS011;15662;49.128;8.520;2023-02-22T11:48:01;9.35;;;7.00;;
28427;SDS011;15662;49.128;8.520;2023-02-22T11:56:51;10.48;;;6.93;;
28427;SDS011;15662;49.128;8.520;2023-02-22T12:02:19;8.82;;;7.00;;
28427;SDS011;15662;49.128;8.520;2023-02-22T12:08:32;9.80;;;7.25;;
28427;SDS011;15662;49.128;8.520;2023-02-22T12:11:33;11.23;;;7.38;;
28427;SDS011;15662;49.128;8.520;2023-02-22T12:14:14;12.98;;;7.90;;
28427;SDS011;15662;49.128;8.520;2023-02-22T12:20:28;9.77;;;6.93;;
28427;SDS011;15662;49.128;8.520;2023-02-22T12:26:13;11.52;;;7.50;;
28427;SDS011;15662;49.128;8.520;2023-02-22T12:29:05;9.82;;;7.88;;
28427;SDS011;15662;49.128;8.520;2023-02-22T12:31:49;10.02;;;7.03;;
28427;SDS011;15662;49.128;8.520;2023-02-22T12:34:46;10.45;;;7.07;;
28427;SDS011;15662;49.128;8.520;2023-02-22T12:40:23;10.13;;;6.97;;
28427;SDS011;15662;49.128;8.520;2023-02-22T12:49:13;12.07;;;7.28;;
28427;SDS011;15662;49.128;8.520;2023-02-22T12:52:11;10.38;;;7.22;;
28427;SDS011;15662;49.128;8.520;2023-02-22T12:57:39;11.57;;;7.28;;
28427;SDS011;15662;49.128;8.520;2023-02-22T13:00:45;13.65;;;6.75;;
28427;SDS011;15662;49.128;8.520;2023-02-22T13:03:56;11.75;;;7.15;;
28427;SDS011;15662;49.128;8.520;2023-02-22T13:13:03;10.77;;;7.30;;
28427;SDS011;15662;49.128;8.520;2023-02-22T13:15:43;10.73;;;7.05;;
28427;SDS011;15662;49.128;8.520;2023-02-22T13:18:49;13.30;;;6.93;;
28427;SDS011;15662;49.128;8.520;2023-02-22T13:22:06;13.40;;;7.57;;
28427;SDS011;15662;49.128;8.520;2023-02-22T13:25:31;9.88;;;6.75;;
28427;SDS011;15662;49.128;8.520;2023-02-22T13:28:32;10.57;;;7.15;;
28427;SDS011;15662;49.128;8.520;2023-02-22T13:31:32;12.05;;;7.30;;
28427;SDS011;15662;49.128;8.520;2023-02-22T13:34:58;13.45;;;7.28;;
28427;SDS011;15662;49.128;8.520;2023-02-22T13:51:42;13.38;;;7.38;;
28427;SDS011;15662;49.128;8.520;2023-02-22T13:54:24;15.20;;;8.98;;
28427;SDS011;15662;49.128;8.520;2023-02-22T13:57:19;13.57;;;8.20;;
28427;SDS011;15662;49.128;8.520;2023-02-22T14:13:19;16.73;;;10.15;;
28427;SDS011;15662;49.128;8.520;2023-02-22T14:18:27;13.63;;;8.98;;
28427;SDS011;15662;49.128;8.520;2023-02-22T14:21:11;16.00;;;8.35;;
28427;SDS011;15662;49.128;8.520;2023-02-22T14:23:44;11.98;;;7.88;;
28427;SDS011;15662;49.128;8.520;2023-02-22T14:29:01;12.05;;;8.45;;
28427;SDS011;15662;49.128;8.520;2023-02-22T14:37:21;12.10;;;8.20;;
28427;SDS011;15662;49.128;8.520;2023-02-22T14:40:22;12.95;;;7.75;;
28427;SDS011;15662;49.128;8.520;2023-02-22T14:45:50;11.88;;;7.85;;
28427;SDS011;15662;49.128;8.520;2023-02-22T14:48:38;11.43;;;8.50;;
28427;SDS011;15662;49.128;8.520;2023-02-22T14:51:14;12.82;;;8.77;;
28427;SDS011;15662;49.128;8.520;2023-02-22T14:53:53;11.75;;;8.48;;
28427;SDS011;15662;49.128;8.520;2023-02-22T14:57:10;11.80;;;8.00;;
28427;SDS011;15662;49.128;8.520;2023-02-22T15:05:28;10.10;;;8.25;;
28427;SDS011;15662;49.128;8.520;2023-02-22T15:08:06;12.40;;;9.15;;
28427;SDS011;15662;49.128;8.520;2023-02-22T15:10:38;10.57;;;8.60;;
28427;SDS011;15662;49.128;8.520;2023-02-22T15:13:20;11.68;;;9.00;;
28427;SDS011;15662;49.128;8.520;2023-02-22T15:15:58;13.05;;;8.93;;
28427;SDS011;15662;49.128;8.520;2023-02-22T15:18:32;13.55;;;8.88;;
28427;SDS011;15662;49.128;8.520;2023-02-22T15:21:16;10.85;;;8.60;;
28427;SDS011;15662;49.128;8.520;2023-02-22T15:23:50;13.32;;;8.95;;
28427;SDS011;15662;49.128;8.520;2023-02-22T15:26:28;13.32;;;8.98;;
28427;SDS011;15662;49.128;8.520;2023-02-22T15:28:57;12.90;;;8.30;;
28427;SDS011;15662;49.128;8.520;2023-02-22T15:34:08;12.68;;;9.05;;
28427;SDS011;15662;49.128;8.520;2023-02-22T15:36:51;12.13;;;9.43;;
28427;SDS011;15662;49.128;8.520;2023-02-22T15:39:26;11.65;;;8.90;;
28427;SDS011;15662;49.128;8.520;2023-02-22T15:44:47;14.45;;;10.27;;
28427;SDS011;15662;49.128;8.520;2023-02-22T15:47:20;16.92;;;10.98;;
28427;SDS011;15662;49.128;8.520;2023-02-22T15:50:13;16.55;;;11.65;;
28427;SDS011;15662;49.128;8.520;2023-02-22T15:55:29;13.30;;;10.00;;
28427;SDS011;15662;49.128;8.520;2023-02-22T16:00:46;14.13;;;10.55;;
28427;SDS011;15662;49.128;8.520;2023-02-22T16:03:39;13.70;;;10.05;;
28427;SDS011;15662;49.128;8.520;2023-02-22T16:14:48;13.48;;;9.73;;
28427;SDS011;15662;49.128;8.520;2023-02-22T16:22:55;13.48;;;10.02;;
28427;SDS011;15662;49.128;8.520;2023-02-22T16:25:33;11.95;;;8.75;;
28427;SDS011;15662;49.128;8.520;2023-02-22T16:28:21;13.27;;;9.32;;
28427;SDS011;15662;49.128;8.520;2023-02-22T16:31:02;15.80;;;8.98;;
28427;SDS011;15662;49.128;8.520;2023-02-22T16:33:31;13.18;;;9.68;;
28427;SDS011;15662;49.128;8.520;2023-02-22T16:36:04;15.60;;;10.05;;
28427;SDS011;15662;49.128;8.520;2023-02-22T16:38:34;12.45;;;9.52;;
28427;SDS011;15662;49.128;8.520;2023-02-22T16:41:05;15.52;;;10.00;;
28427;SDS011;15662;49.128;8.520;2023-02-22T16:43:33;13.95;;;10.20;;
28427;SDS011;15662;49.128;8.520;2023-02-22T16:46:02;13.95;;;9.77;;
28427;SDS011;15662;49.128;8.520;2023-02-22T16:48:33;16.85;;;10.05;;
28427;SDS011;15662;49.128;8.520;2023-02-22T16:51:09;19.23;;;10.38;;
28427;SDS011;15662;49.128;8.520;2023-02-22T16:53:43;15.80;;;10.57;;
28427;SDS011;15662;49.128;8.520;2023-02-22T16:56:12;14.77;;;10.65;;
28427;SDS011;15662;49.128;8.520;2023-02-22T16:58:43;13.48;;;10.10;;
28427;SDS011;15662;49.128;8.520;2023-02-22T17:01:16;13.95;;;9.70;;
28427;SDS011;15662;49.128;8.520;2023-02-22T17:03:44;13.98;;;10.25;;
28427;SDS011;15662;49.128;8.520;2023-02-22T17:06:12;12.50;;;9.88;;
28427;SDS011;15662;49.128;8.520;2023-02-22T17:08:40;11.88;;;9.48;;
28427;SDS011;15662;49.128;8.520;2023-02-22T17:11:09;15.32;;;10.40;;
28427;SDS011;15662;49.128;8.520;2023-02-22T17:13:38;15.43;;;10.57;;
28427;SDS011;15662;49.128;8.520;2023-02-22T17:16:10;15.00;;;10.88;;
28427;SDS011;15662;49.128;8.520;2023-02-22T17:18:41;16.52;;;11.25;;
28427;SDS011;15662;49.128;8.520;2023-02-22T17:21:13;16.23;;;10.55;;
28427;SDS011;15662;49.128;8.520;2023-02-22T17:23:42;13.82;;;10.18;;
28427;SDS011;15662;49.128;8.520;2023-02-22T17:26:14;12.60;;;9.53;;
28427;SDS011;15662;49.128;8.520;2023-02-22T17:28:43;12.40;;;9.77;;
28427;SDS011;15662;49.128;8.520;2023-02-22T17:31:18;14.70;;;9.68;;
28427;SDS011;15662;49.128;8.520;2023-02-22T17:33:50;15.10;;;10.52;;
28427;SDS011;15662;49.128;8.520;2023-02-22T17:36:18;13.32;;;10.70;;
28427;SDS011;15662;49.128;8.520;2023-02-22T17:38:46;14.05;;;10.98;;
28427;SDS011;15662;49.128;8.520;2023-02-22T17:41:15;14.95;;;11.30;;
28427;SDS011;15662;49.128;8.520;2023-02-22T17:43:43;14.43;;;11.55;;
28427;SDS011;15662;49.128;8.520;2023-02-22T17:46:13;15.77;;;11.93;;
28427;SDS011;15662;49.128;8.520;2023-02-22T17:48:45;18.40;;;12.18;;
28427;SDS011;15662;49.128;8.520;2023-02-22T17:51:16;18.30;;;13.38;;
28427;SDS011;15662;49.128;8.520;2023-02-22T17:53:44;19.30;;;13.68;;
28427;SDS011;15662;49.128;8.520;2023-02-22T17:56:14;18.05;;;13.05;;
28427;SDS011;15662;49.128;8.520;2023-02-22T17:58:49;16.30;;;13.20;;
28427;SDS011;15662;49.128;8.520;2023-02-22T18:01:23;21.83;;;14.00;;
28427;SDS011;15662;49.128;8.520;2023-02-22T18:03:59;19.80;;;13.75;;
28427;SDS011;15662;49.128;8.520;2023-02-22T18:06:29;18.65;;;14.50;;
28427;SDS011;15662;49.128;8.520;2023-02-22T18:08:59;17.67;;;13.73;;